Terminal Aerodrome Forecast
Issued by NWS

Home | Current Version | Previous Version | Text Only | Print | Product List | Glossary On
Versions: 1 2 3 4 5 6 7 8 9 10 11 12 13 14 15 16
030
FTUS44 KLIX 262324
TAFMSY
TAF
KMSY 262324Z 2700/2724 11014KT P6SM FEW035 BKN250
     FM270300 13010KT P6SM BKN110
     FM271200 15009KT P6SM VCSH SCT025 BKN045
     FM271500 18011KT P6SM SHRA VCTS BKN020CB OVC040
     FM272300 17009KT P6SM SHRA VCTS BKN030CB=

USA.gov is the U.S. government's official web portal to all federal, state and local government web resources and services.